This is the latest recevied weather packets stored in our database for station/object IQ5KG. If no packets are shown the sender has not sent any weather packets the latest 10 day(s).
| Time | Temp. | Humidity | Pressure | Rain* | Wind** | Luminosity | Snow |
|---|---|---|---|---|---|---|---|
| 1777672949 | 13.89° C | 37% | 1025.8 hPa | 0 mm | - | - | - |
| 1777672049 | 13.33° C | 42% | 1025.9 hPa | 0 mm | - | - | - |
| 1777671150 | 13.89° C | 40% | 1025.9 hPa | 0 mm | - | - | - |
| 1777670250 | 13.89° C | 39% | 1025.6 hPa | 0 mm | - | - | - |
| 1777669349 | 14.44° C | 39% | 1025.6 hPa | 0 mm | - | - | - |
| 1777668448 | 13.89° C | 42% | 1025.9 hPa | 0 mm | - | - | - |
| 1777667548 | 13.89° C | 42% | 1025.6 hPa | 0 mm | - | - | - |
| 1777666648 | 15° C | 38% | 1025.5 hPa | 0 mm | - | - | - |
| 1777665749 | 15° C | 38% | 1025.6 hPa | 0 mm | - | - | - |
| 1777664848 | 15° C | 37% | 1025.3 hPa | 0 mm | - | - | - |
| 1777663949 | 15° C | 37% | 1025.2 hPa | 0 mm | - | - | - |
| 1777663048 | 15.56° C | 37% | 1025 hPa | 0 mm | - | - | - |
| 1777662147 | 15.56° C | 36% | 1024.8 hPa | 0 mm | - | - | - |
| 1777661249 | 16.11° C | 34% | 1024.8 hPa | 0 mm | - | - | - |
| 1777660347 | 16.11° C | 34% | 1024.6 hPa | 0 mm | - | - | - |
| 1777659447 | 16.67° C | 34% | 1024.2 hPa | 0 mm | - | - | - |
| 1777658547 | 17.22° C | 33% | 1024.2 hPa | 0 mm | - | - | - |
| 1777657649 | 17.78° C | 33% | 1024 hPa | 0 mm | - | - | - |
| 1777656747 | 18.33° C | 32% | 1023.8 hPa | 0 mm | - | - | - |
| 1777655847 | 18.33° C | 32% | 1023.7 hPa | 0 mm | - | - | - |
| 1777654947 | 18.89° C | 31% | 1023.5 hPa | 0 mm | - | - | - |
| 1777654047 | 19.44° C | 31% | 1023.6 hPa | 0 mm | - | - | - |
| 1777653147 | 19.44° C | 31% | 1023.5 hPa | 0 mm | - | - | - |
| 1777652245 | 20° C | 31% | 1023.4 hPa | 0 mm | - | - | - |
| 1777651345 | 20° C | 31% | 1023.4 hPa | 0 mm | - | - | - |
* Rain latest hour (hover to see other rain measurements)
** Current wind speed in m/s (hover to see current wind gust speed)